Time;durP1;ratioP1;P1;durP2;ratioP2;P2;SDS_P1;SDS_P2;PMS_P1;PMS_P2;Temp;Humidity;BMP_temperature;BMP_pressure;BME280_temperature;BME280_humidity;BME280_pressure;Samples;Min_cycle;Max_cycle;Signal;HPM_P1;HPM_P2
2022/01/15 00:01:46;;;;;;;0.73;0.70;;;18.60;48.50;;;;;;5102681;28;20058;-53
2022/01/15 00:04:12;;;;;;;0.82;0.70;;;18.50;48.50;;;;;;5103302;28;20768;-56
2022/01/15 00:06:38;;;;;;;0.93;0.80;;;18.50;48.50;;;;;;5103083;28;20032;-55
2022/01/15 00:09:04;;;;;;;1.65;0.90;;;18.50;48.60;;;;;;5102949;28;20044;-56
2022/01/15 00:11:31;;;;;;;1.33;1.00;;;18.50;48.60;;;;;;5102730;28;20119;-56
2022/01/15 00:14:10;;;;;;;1.00;0.80;;;18.40;48.60;;;;;;5102820;28;20117;-56
2022/01/15 00:16:48;;;;;;;1.20;0.90;;;18.40;48.60;;;;;;5103114;28;20038;-54
2022/01/15 00:19:16;;;;;;;0.95;0.80;;;18.40;48.70;;;;;;5102827;28;20024;-56
2022/01/15 00:21:42;;;;;;;1.70;1.10;;;18.40;48.70;;;;;;5102550;28;20038;-56
2022/01/15 00:24:08;;;;;;;1.33;1.00;;;18.30;48.60;;;;;;5103169;28;20024;-55
2022/01/15 00:26:35;;;;;;;1.65;1.05;;;18.30;48.70;;;;;;5102803;28;20031;-53
2022/01/15 00:29:01;;;;;;;1.75;1.00;;;18.30;48.70;;;;;;5083693;28;20036;-56
2022/01/15 00:31:27;;;;;;;1.35;1.00;;;18.20;48.70;;;;;;5102480;28;20035;-58
2022/01/15 00:33:53;;;;;;;1.08;0.70;;;18.20;48.80;;;;;;5102922;28;20106;-55
2022/01/15 00:36:20;;;;;;;1.50;1.00;;;18.20;48.80;;;;;;5102821;28;20020;-56
2022/01/15 00:38:46;;;;;;;1.77;1.20;;;18.20;48.80;;;;;;5102778;28;20028;-55
2022/01/15 00:41:12;;;;;;;1.20;1.00;;;18.20;48.80;;;;;;5102519;28;20785;-56
2022/01/15 00:43:40;;;;;;;1.48;0.98;;;18.10;48.90;;;;;;5102807;28;20028;-56
2022/01/15 00:46:06;;;;;;;1.38;1.00;;;18.10;48.80;;;;;;5102488;28;20032;-56
2022/01/15 00:48:32;;;;;;;1.77;1.20;;;18.10;48.90;;;;;;5102453;28;20043;-56
2022/01/15 00:50:58;;;;;;;1.77;1.00;;;18.10;48.80;;;;;;5101620;28;20035;-56
2022/01/15 00:53:25;;;;;;;1.83;0.90;;;18.10;49.00;;;;;;5102904;28;20400;-56
2022/01/15 00:55:51;;;;;;;1.90;1.25;;;18.10;48.90;;;;;;5103040;28;20020;-53
2022/01/15 00:58:17;;;;;;;2.05;1.20;;;18.10;48.90;;;;;;5084635;28;20080;-56
2022/01/15 01:00:45;;;;;;;2.45;1.33;;;18.00;48.90;;;;;;5101440;28;20123;-56
2022/01/15 01:03:11;;;;;;;2.35;1.42;;;18.00;49.00;;;;;;5102090;28;20485;-57
2022/01/15 01:05:37;;;;;;;2.00;1.27;;;17.90;49.00;;;;;;5118832;28;20030;-56
2022/01/15 01:08:03;;;;;;;2.30;1.10;;;17.90;49.00;;;;;;5103620;28;20032;-56
2022/01/15 01:23:39;;;;;;;2.33;1.40;;;17.80;49.30;;;;;;5103954;28;20048;-55
2022/01/15 01:26:10;;;;;;;2.05;1.13;;;17.80;49.30;;;;;;5105688;28;20016;-55
2022/01/15 01:28:42;;;;;;;1.60;1.27;;;17.70;49.30;;;;;;5105865;28;20069;-54
2022/01/15 01:31:20;;;;;;;2.53;1.55;;;17.70;49.30;;;;;;5114035;28;20085;-54
2022/01/15 01:33:50;;;;;;;3.53;1.45;;;17.70;49.30;;;;;;5126027;28;20141;-54
2022/01/15 01:36:35;;;;;;;2.85;1.30;;;17.70;49.40;;;;;;5125901;28;20035;-55
2022/01/15 01:39:06;;;;;;;3.72;1.50;;;17.60;49.40;;;;;;5126331;28;20023;-55
2022/01/15 01:41:36;;;;;;;1.92;1.20;;;17.60;49.40;;;;;;5124788;28;20035;-56
2022/01/15 01:44:04;;;;;;;3.53;1.35;;;17.60;49.40;;;;;;5105177;28;20032;-58
2022/01/15 01:46:36;;;;;;;;;;;17.60;49.60;;;;;;5105933;28;20020;-55
2022/01/15 01:49:03;;;;;;;2.88;1.50;;;17.50;49.50;;;;;;5105560;28;19923;-57
2022/01/15 01:51:33;;;;;;;2.60;1.75;;;17.50;49.80;;;;;;5105044;28;20024;-56
2022/01/15 01:54:03;;;;;;;3.33;1.67;;;17.50;49.50;;;;;;5104768;28;20092;-55
2022/01/15 01:56:30;;;;;;;2.33;1.42;;;17.40;49.70;;;;;;5111865;28;20110;-56
2022/01/15 01:58:56;;;;;;;2.33;1.30;;;17.40;49.70;;;;;;5122363;28;20024;-58
2022/01/15 02:01:22;;;;;;;2.10;1.40;;;17.40;49.60;;;;;;5105283;28;20028;-55
2022/01/15 02:03:48;;;;;;;2.78;1.60;;;17.40;49.70;;;;;;5104795;28;20024;-57
2022/01/15 02:06:15;;;;;;;3.22;1.80;;;17.30;49.70;;;;;;5104653;28;20588;-54
2022/01/15 02:08:42;;;;;;;2.53;1.50;;;17.30;49.70;;;;;;5086915;28;20036;-54
2022/01/15 02:11:08;;;;;;;3.05;1.85;;;17.30;49.70;;;;;;5104864;28;20054;-57
2022/01/15 02:13:40;;;;;;;3.72;1.67;;;17.20;49.80;;;;;;5104476;28;20511;-55
2022/01/15 02:16:06;;;;;;;3.40;1.90;;;17.20;49.90;;;;;;5105005;28;20035;-56
2022/01/15 02:18:34;;;;;;;2.35;1.80;;;17.20;49.90;;;;;;5104588;28;20080;-55
2022/01/15 02:23:35;;;;;;;3.75;1.90;;;17.10;50.00;;;;;;5086775;28;20032;-55
2022/01/15 02:26:10;;;;;;;3.50;1.85;;;17.10;50.10;;;;;;5084535;28;20056;-56
2022/01/15 02:28:39;;;;;;;4.13;1.90;;;17.10;50.60;;;;;;5084146;28;20044;-53
2022/01/15 02:31:10;;;;;;;2.55;1.90;;;17.00;50.00;;;;;;5046351;28;20059;-51
2022/01/15 02:33:36;;;;;;;3.15;1.98;;;17.00;50.10;;;;;;5062503;28;20032;-55
2022/01/15 02:36:04;;;;;;;3.90;2.23;;;16.90;50.20;;;;;;5063953;28;20033;-54
2022/01/15 02:38:30;;;;;;;4.55;2.30;;;16.90;50.20;;;;;;5064283;28;20032;-55
2022/01/15 02:40:56;;;;;;;3.33;2.10;;;16.90;50.30;;;;;;5063914;28;20389;-54
2022/01/15 02:43:29;;;;;;;4.93;2.50;;;16.90;50.20;;;;;;5063745;28;20025;-57
2022/01/15 02:45:57;;;;;;;4.00;2.22;;;16.90;50.20;;;;;;5097819;28;20027;-54
2022/01/15 02:48:24;;;;;;;;;;;16.90;50.30;;;;;;5104703;28;20066;-54
2022/01/15 02:50:50;;;;;;;4.15;2.08;;;16.90;50.30;;;;;;5103944;28;19904;-54
2022/01/15 02:53:16;;;;;;;3.45;2.30;;;16.90;50.30;;;;;;5102326;28;20028;-53
2022/01/15 02:55:43;;;;;;;5.07;2.40;;;16.80;50.40;;;;;;5067651;28;20033;-55
2022/01/15 02:58:09;;;;;;;3.97;2.53;;;16.80;50.40;;;;;;5083827;28;20118;-55
2022/01/15 03:00:36;;;;;;;3.63;2.20;;;16.70;50.40;;;;;;5095413;28;20028;-56
2022/01/15 03:03:02;;;;;;;5.55;2.60;;;16.70;50.50;;;;;;5103882;28;20044;-54
2022/01/15 03:05:28;;;;;;;4.15;2.40;;;16.70;50.50;;;;;;5065853;28;20036;-56
2022/01/15 03:07:54;;;;;;;5.10;2.50;;;16.70;50.60;;;;;;5063424;28;20033;-53
2022/01/15 03:10:20;;;;;;;5.10;2.83;;;16.60;50.60;;;;;;5064951;28;20021;-54
2022/01/15 03:12:47;;;;;;;5.13;2.65;;;16.60;50.50;;;;;;5089817;28;20048;-56
2022/01/15 03:15:19;;;;;;;4.45;2.50;;;16.60;50.60;;;;;;5123577;28;20028;-55
2022/01/15 03:17:48;;;;;;;5.18;2.80;;;16.60;50.60;;;;;;5124056;28;20553;-55
2022/01/15 03:20:16;;;;;;;4.82;2.80;;;16.60;50.70;;;;;;5104203;28;20020;-55
2022/01/15 03:22:42;;;;;;;4.75;2.75;;;16.70;50.80;;;;;;5103581;28;20024;-56
2022/01/15 03:25:09;;;;;;;4.80;2.63;;;16.70;50.80;;;;;;5103369;28;20035;-53
2022/01/15 03:27:35;;;;;;;4.23;2.53;;;16.70;50.80;;;;;;5085105;28;20477;-55
2022/01/15 03:30:01;;;;;;;4.38;2.50;;;16.70;50.80;;;;;;5084062;28;20027;-56
2022/01/15 03:32:27;;;;;;;4.32;2.70;;;16.60;50.80;;;;;;5102918;28;20062;-55
2022/01/15 03:34:54;;;;;;;5.53;2.95;;;16.60;50.80;;;;;;5084481;28;20577;-56
2022/01/15 03:37:20;;;;;;;6.40;2.78;;;16.60;50.90;;;;;;5103241;28;20103;-56
2022/01/15 03:39:46;;;;;;;4.95;2.67;;;16.50;50.90;;;;;;5122717;28;20028;-55
2022/01/15 03:42:12;;;;;;;6.05;3.08;;;16.50;50.90;;;;;;5123378;28;20034;-55
2022/01/15 03:44:42;;;;;;;4.78;2.75;;;16.60;51.10;;;;;;5123561;28;20071;-54
2022/01/15 03:47:09;;;;;;;4.78;2.63;;;16.60;51.10;;;;;;5123869;28;20080;-56
2022/01/15 03:49:35;;;;;;;4.88;2.97;;;16.70;51.10;;;;;;5093427;28;20032;-57
2022/01/15 03:52:02;;;;;;;4.22;2.70;;;16.60;51.10;;;;;;5103249;28;20028;-55
2022/01/15 03:54:28;;;;;;;3.28;2.13;;;16.60;51.10;;;;;;5103001;28;20031;-55
2022/01/15 03:56:54;;;;;;;4.07;2.65;;;16.50;51.10;;;;;;5102592;28;20024;-56
2022/01/15 03:59:20;;;;;;;5.35;3.08;;;16.50;51.10;;;;;;5104156;28;20028;-55
2022/01/15 04:01:46;;;;;;;4.60;2.78;;;16.50;51.10;;;;;;5082895;28;20017;-56
2022/01/15 04:04:13;;;;;;;4.68;2.60;;;16.60;51.30;;;;;;5093983;28;20135;-55
2022/01/15 04:06:40;;;;;;;6.28;3.03;;;16.60;51.40;;;;;;5123377;28;20034;-56
2022/01/15 04:09:06;;;;;;;5.53;2.72;;;16.60;51.30;;;;;;5123067;28;20060;-55
2022/01/15 04:11:32;;;;;;;5.20;2.90;;;16.60;51.30;;;;;;5099230;28;20092;-57
2022/01/15 04:13:58;;;;;;;5.28;3.35;;;16.60;51.20;;;;;;5082671;28;20032;-54
2022/01/15 04:16:25;;;;;;;5.97;3.13;;;16.60;51.20;;;;;;5082337;28;20024;-54
2022/01/15 04:18:51;;;;;;;5.25;2.95;;;16.50;51.20;;;;;;5082632;28;20021;-54
2022/01/15 04:21:17;;;;;;;6.10;3.35;;;16.50;51.20;;;;;;5082539;28;20055;-54
2022/01/15 04:23:43;;;;;;;5.38;2.90;;;16.50;51.20;;;;;;5082520;28;20029;-54
2022/01/15 04:26:09;;;;;;;6.05;3.25;;;16.50;51.30;;;;;;5082276;28;20028;-53
2022/01/15 04:28:35;;;;;;;6.43;3.30;;;16.60;51.50;;;;;;5082214;28;20044;-54
2022/01/15 04:31:06;;;;;;;5.00;3.10;;;16.60;51.60;;;;;;5081340;28;20034;-54
2022/01/15 04:33:36;;;;;;;5.80;3.40;;;16.60;51.40;;;;;;5082529;28;20032;-57
2022/01/15 04:36:06;;;;;;;5.55;3.00;;;16.60;51.40;;;;;;5081912;28;20031;-54
2022/01/15 04:38:35;;;;;;;5.00;3.08;;;16.60;51.30;;;;;;5080908;28;20571;-55
2022/01/15 04:41:01;;;;;;;5.60;3.20;;;16.60;51.30;;;;;;5085122;28;20036;-58
2022/01/15 04:43:27;;;;;;;6.95;3.22;;;16.50;51.30;;;;;;5085486;28;20051;-56
2022/01/15 04:45:54;;;;;;;6.57;3.50;;;16.50;51.30;;;;;;5106313;28;20028;-56
2022/01/15 04:48:20;;;;;;;5.28;2.75;;;16.50;51.60;;;;;;5105874;28;20036;-54
2022/01/15 04:50:46;;;;;;;4.97;2.95;;;16.60;51.70;;;;;;5086134;28;20437;-58
2022/01/15 04:53:12;;;;;;;5.00;2.92;;;16.60;51.60;;;;;;5085798;28;20079;-57
2022/01/15 04:55:38;;;;;;;5.68;3.15;;;16.60;51.50;;;;;;5085860;28;20509;-55
2022/01/15 04:58:05;;;;;;;6.97;3.70;;;16.60;51.40;;;;;;5085913;28;20092;-58
2022/01/15 05:00:31;;;;;;;5.72;3.40;;;16.60;51.40;;;;;;5080907;28;20052;-56
2022/01/15 05:02:57;;;;;;;4.93;3.05;;;16.50;51.30;;;;;;5085804;28;20428;-52
2022/01/15 05:05:24;;;;;;;6.15;3.33;;;16.50;51.40;;;;;;5084278;28;20025;-54
2022/01/15 05:07:53;;;;;;;5.60;3.33;;;16.50;51.40;;;;;;5085640;28;20103;-57
2022/01/15 05:10:23;;;;;;;5.85;3.35;;;16.60;51.70;;;;;;5067773;28;20040;-54
2022/01/15 05:12:49;;;;;;;6.40;3.40;;;16.60;51.90;;;;;;5067540;28;20032;-56
2022/01/15 05:15:17;;;;;;;6.53;3.28;;;16.60;51.60;;;;;;5096580;28;20028;-54
2022/01/15 05:17:44;;;;;;;5.80;3.40;;;16.60;51.60;;;;;;5105946;28;20093;-55
2022/01/15 05:20:12;;;;;;;5.18;3.30;;;16.60;51.50;;;;;;5089348;28;20028;-54
2022/01/15 05:22:38;;;;;;;6.25;3.58;;;16.60;51.50;;;;;;5085435;28;20064;-55
2022/01/15 05:25:07;;;;;;;5.70;3.33;;;16.50;51.40;;;;;;5085735;28;20097;-53
2022/01/15 05:27:36;;;;;;;5.35;2.92;;;16.50;52.10;;;;;;5085107;28;20087;-55
2022/01/15 05:30:04;;;;;;;5.10;3.30;;;16.60;51.80;;;;;;5085810;28;20852;-57
2022/01/15 05:32:30;;;;;;;5.60;3.20;;;16.60;51.70;;;;;;5085343;28;20028;-55
2022/01/15 05:34:57;;;;;;;6.53;3.20;;;16.60;51.60;;;;;;5083694;28;20034;-55
2022/01/15 05:37:27;;;;;;;4.00;2.83;;;16.60;51.60;;;;;;5085022;28;20028;-54
2022/01/15 05:39:53;;;;;;;5.97;3.75;;;16.60;51.60;;;;;;5085186;28;20109;-55
2022/01/15 05:42:19;;;;;;;6.28;3.33;;;16.60;51.50;;;;;;5085466;28;20035;-56
2022/01/15 05:44:45;;;;;;;5.97;3.20;;;16.60;51.60;;;;;;5085078;28;20043;-54
2022/01/15 05:47:11;;;;;;;5.72;3.28;;;16.60;51.90;;;;;;5084826;28;20021;-55
2022/01/15 05:49:37;;;;;;;5.68;3.28;;;16.60;51.80;;;;;;5085135;28;20040;-55
2022/01/15 05:52:04;;;;;;;5.72;3.13;;;16.60;51.60;;;;;;5067003;28;20025;-59
2022/01/15 05:54:30;;;;;;;5.40;3.03;;;16.60;51.60;;;;;;5066666;28;20063;-56
2022/01/15 05:56:57;;;;;;;4.95;3.00;;;16.60;51.60;;;;;;5084465;28;20055;-55
2022/01/15 05:59:23;;;;;;;5.38;3.45;;;16.50;51.50;;;;;;5079835;28;20032;-54
2022/01/15 06:01:49;;;;;;;4.13;2.80;;;16.60;51.50;;;;;;5064714;28;20029;-55
2022/01/15 06:04:15;;;;;;;5.57;3.08;;;16.60;51.70;;;;;;5064651;28;20653;-56
2022/01/15 06:06:41;;;;;;;5.40;2.72;;;16.60;51.90;;;;;;5046273;28;20765;-57
2022/01/15 06:09:07;;;;;;;4.85;2.88;;;16.60;51.70;;;;;;5089511;28;20064;-55
2022/01/15 06:11:39;;;;;;;5.57;3.55;;;16.60;51.60;;;;;;5066323;28;20048;-54
2022/01/15 06:14:05;;;;;;;5.68;3.28;;;16.60;51.60;;;;;;5084810;28;20024;-54
2022/01/15 06:16:31;;;;;;;6.05;3.10;;;16.60;51.50;;;;;;5066215;28;20024;-54
2022/01/15 06:18:57;;;;;;;6.07;3.38;;;16.60;51.50;;;;;;5086939;28;20031;-56
2022/01/15 06:21:23;;;;;;;4.72;3.08;;;16.60;51.60;;;;;;5084165;28;20021;-53
2022/01/15 06:23:49;;;;;;;4.30;2.78;;;16.60;51.80;;;;;;5104656;28;20040;-54
2022/01/15 06:26:15;;;;;;;4.57;2.95;;;16.60;51.90;;;;;;5098247;28;20017;-55
2022/01/15 06:28:41;;;;;;;4.97;2.97;;;16.70;51.80;;;;;;5084144;28;20039;-54
2022/01/15 06:31:08;;;;;;;5.43;3.30;;;16.70;51.70;;;;;;5078287;28;20021;-56
2022/01/15 06:33:34;;;;;;;5.43;3.20;;;16.60;51.70;;;;;;5084180;28;20025;-56
2022/01/15 06:36:00;;;;;;;6.03;3.08;;;16.60;51.70;;;;;;5084121;28;20024;-52
2022/01/15 06:38:26;;;;;;;4.63;3.05;;;16.60;51.60;;;;;;5104131;28;20048;-55
2022/01/15 06:40:52;;;;;;;4.82;3.03;;;16.60;51.60;;;;;;5104451;28;20020;-52
2022/01/15 06:43:18;;;;;;;5.78;3.28;;;16.60;51.70;;;;;;5104231;28;20036;-52
2022/01/15 06:45:44;;;;;;;5.18;3.17;;;16.60;52.00;;;;;;5086089;28;20548;-52
2022/01/15 06:48:11;;;;;;;4.28;2.75;;;16.70;52.00;;;;;;5103703;28;20036;-52
2022/01/15 06:50:37;;;;;;;5.30;3.25;;;16.70;51.80;;;;;;5083611;28;20050;-53
2022/01/15 06:53:03;;;;;;;4.28;3.03;;;16.70;51.80;;;;;;5083591;28;20036;-55
2022/01/15 06:55:30;;;;;;;5.45;3.08;;;16.60;51.70;;;;;;5083928;28;20032;-53
2022/01/15 06:57:56;;;;;;;4.35;3.00;;;16.60;51.70;;;;;;5074070;28;20051;-55
2022/01/15 07:00:24;;;;;;;6.45;3.08;;;16.60;51.70;;;;;;5077325;28;20056;-55
2022/01/15 07:02:50;;;;;;;5.75;3.10;;;16.60;51.70;;;;;;5063459;28;20036;-55
2022/01/15 07:05:16;;;;;;;5.95;3.00;;;16.60;52.00;;;;;;5063341;28;20034;-55
2022/01/15 07:07:46;;;;;;;4.25;2.67;;;16.70;52.00;;;;;;5062624;28;20036;-55
2022/01/15 07:10:12;;;;;;;4.28;2.88;;;16.70;51.80;;;;;;5072286;28;20040;-55
2022/01/15 07:12:39;;;;;;;4.28;2.70;;;16.70;51.80;;;;;;5103945;28;20717;-54
2022/01/15 07:15:05;;;;;;;4.50;2.88;;;16.60;51.70;;;;;;5103526;28;20030;-53
2022/01/15 07:17:31;;;;;;;4.80;3.15;;;16.60;51.60;;;;;;5103316;28;20028;-55
2022/01/15 07:19:57;;;;;;;4.85;3.10;;;16.60;51.60;;;;;;5089128;28;20017;-54
2022/01/15 07:22:23;;;;;;;4.05;2.65;;;16.60;51.70;;;;;;5083319;28;20024;-55
2022/01/15 07:24:50;;;;;;;5.03;2.72;;;16.70;52.10;;;;;;5083274;28;20025;-55
2022/01/15 07:27:16;;;;;;;4.97;2.75;;;16.70;52.10;;;;;;5082894;28;20032;-51
2022/01/15 07:29:42;;;;;;;3.88;2.58;;;16.70;51.90;;;;;;5076751;28;20251;-55
2022/01/15 07:32:08;;;;;;;5.35;2.70;;;16.70;51.90;;;;;;5085079;28;20024;-54
2022/01/15 07:34:34;;;;;;;4.32;2.70;;;16.70;51.80;;;;;;5065413;28;20154;-55
2022/01/15 07:37:01;;;;;;;5.00;3.17;;;16.70;51.90;;;;;;5083020;28;20051;-54
2022/01/15 07:39:27;;;;;;;4.40;2.75;;;16.60;51.70;;;;;;5082891;28;20028;-55
2022/01/15 07:41:57;;;;;;;4.90;3.00;;;16.60;51.70;;;;;;5065022;28;20025;-54
2022/01/15 07:44:23;;;;;;;4.20;2.83;;;16.70;52.00;;;;;;5083102;28;20032;-53
2022/01/15 07:46:49;;;;;;;4.43;3.08;;;16.70;52.20;;;;;;5083072;28;20028;-55
2022/01/15 07:49:15;;;;;;;4.50;2.67;;;16.70;52.00;;;;;;5082753;28;20568;-52
2022/01/15 07:51:41;;;;;;;4.03;2.78;;;16.70;51.90;;;;;;5082946;28;20016;-54
2022/01/15 07:54:07;;;;;;;3.90;2.70;;;16.70;51.90;;;;;;5082797;28;20036;-54
2022/01/15 07:56:34;;;;;;;4.03;2.65;;;16.70;51.90;;;;;;5083153;28;20075;-55
2022/01/15 07:59:00;;;;;;;3.78;2.35;;;16.60;51.80;;;;;;5081776;28;20024;-53
2022/01/15 08:01:27;;;;;;;4.13;2.80;;;16.60;51.90;;;;;;5082682;28;20035;-55
2022/01/15 08:03:54;;;;;;;3.85;2.38;;;16.60;52.10;;;;;;5082902;28;20035;-55
2022/01/15 08:06:20;;;;;;;3.83;2.67;;;16.70;52.10;;;;;;5097444;28;20028;-55
2022/01/15 08:08:46;;;;;;;4.40;2.90;;;16.70;52.00;;;;;;5099228;28;20039;-54
2022/01/15 08:11:12;;;;;;;4.75;2.80;;;16.70;51.90;;;;;;5102797;28;20044;-52
2022/01/15 08:13:38;;;;;;;3.42;2.30;;;16.70;51.90;;;;;;5102794;28;20026;-55
2022/01/15 08:16:04;;;;;;;3.95;2.75;;;16.70;51.80;;;;;;5064624;28;20043;-53
2022/01/15 08:18:32;;;;;;;4.50;2.97;;;16.70;51.90;;;;;;5087849;28;20024;-55
2022/01/15 08:20:58;;;;;;;3.92;2.58;;;16.70;52.00;;;;;;5068892;28;20032;-55
2022/01/15 08:23:24;;;;;;;3.70;2.40;;;16.70;52.80;;;;;;5089101;28;20071;-54
2022/01/15 08:25:50;;;;;;;3.80;2.38;;;16.70;52.00;;;;;;5104177;28;20036;-55
2022/01/15 08:28:17;;;;;;;4.82;2.90;;;16.70;52.00;;;;;;5068426;28;20050;-55
2022/01/15 08:30:44;;;;;;;3.72;2.40;;;16.70;51.90;;;;;;5070136;28;20711;-56
2022/01/15 08:33:10;;;;;;;3.67;2.47;;;16.70;51.90;;;;;;5048560;28;20065;-54
2022/01/15 08:35:37;;;;;;;4.97;2.97;;;16.60;51.90;;;;;;5066778;28;20076;-53
2022/01/15 08:38:03;;;;;;;4.60;2.67;;;16.60;51.90;;;;;;5066131;28;20028;-55
2022/01/15 08:40:29;;;;;;;3.72;2.80;;;16.60;51.90;;;;;;5048570;28;20080;-53
2022/01/15 08:42:56;;;;;;;3.03;2.17;;;16.70;52.20;;;;;;5066269;28;20036;-55
2022/01/15 08:45:22;;;;;;;4.22;2.58;;;16.70;52.20;;;;;;5066177;28;20032;-53
2022/01/15 08:47:48;;;;;;;3.67;2.38;;;16.70;52.00;;;;;;5066302;28;20044;-56
2022/01/15 08:50:15;;;;;;;3.55;2.58;;;16.70;51.90;;;;;;5082748;28;20040;-56
2022/01/15 08:52:42;;;;;;;4.28;3.08;;;16.70;51.90;;;;;;5085852;28;20028;-54
2022/01/15 08:55:08;;;;;;;4.45;2.50;;;16.70;51.90;;;;;;5086046;28;20035;-56
2022/01/15 08:57:34;;;;;;;3.80;1.90;;;16.60;51.80;;;;;;5086089;28;20029;-56
2022/01/15 09:00:00;;;;;;;3.03;2.28;;;16.70;52.10;;;;;;5091357;28;20047;-54
2022/01/15 09:02:27;;;;;;;4.13;2.72;;;16.70;52.30;;;;;;5106056;28;20565;-55
2022/01/15 09:04:53;;;;;;;3.35;2.20;;;16.70;52.10;;;;;;5088156;28;20070;-55
2022/01/15 09:07:19;;;;;;;4.18;2.40;;;16.80;52.10;;;;;;5106007;28;20031;-54
2022/01/15 09:09:45;;;;;;;3.22;2.50;;;16.80;52.00;;;;;;5106278;28;20035;-54
2022/01/15 09:12:12;;;;;;;3.95;2.42;;;16.70;51.90;;;;;;5088695;28;20064;-56
2022/01/15 09:14:39;;;;;;;6.00;2.90;;;16.70;51.90;;;;;;5085582;28;20028;-55
2022/01/15 09:17:05;;;;;;;4.63;2.40;;;16.70;51.90;;;;;;5085817;28;20025;-55
2022/01/15 09:19:32;;;;;;;3.17;2.30;;;16.60;51.90;;;;;;5087423;28;20029;-52
2022/01/15 09:21:59;;;;;;;2.67;2.05;;;16.70;52.30;;;;;;5085245;28;20565;-53
2022/01/15 09:24:25;;;;;;;3.65;2.47;;;16.70;52.30;;;;;;5089578;28;20047;-53
2022/01/15 09:32:05;;;;;;;3.17;2.40;;;16.70;52.00;;;;;;5084211;28;20046;-54
2022/01/15 09:34:34;;;;;;;2.63;2.00;;;16.70;52.00;;;;;;5084574;28;20032;-53
2022/01/15 09:37:00;;;;;;;2.63;2.10;;;16.70;51.90;;;;;;5085530;28;20123;-55
2022/01/15 09:39:27;;;;;;;2.72;2.25;;;16.70;52.00;;;;;;5085594;28;20025;-55
2022/01/15 09:41:55;;;;;;;3.45;2.33;;;16.70;52.30;;;;;;5083755;28;20033;-54
2022/01/15 09:44:22;;;;;;;3.28;2.20;;;16.80;52.30;;;;;;5085339;28;20032;-52
2022/01/15 09:46:48;;;;;;;3.75;2.58;;;16.70;52.00;;;;;;5085184;28;20029;-54
2022/01/15 09:49:15;;;;;;;2.83;2.05;;;16.70;52.00;;;;;;5084985;28;20587;-54
2022/01/15 09:51:42;;;;;;;3.17;2.45;;;16.70;52.00;;;;;;5066871;28;20021;-55
2022/01/15 09:54:08;;;;;;;3.00;2.10;;;16.70;52.00;;;;;;5085281;28;20028;-53
2022/01/15 09:56:34;;;;;;;3.88;2.30;;;16.70;52.00;;;;;;5085026;28;20029;-53
2022/01/15 09:59:02;;;;;;;2.88;2.15;;;16.70;52.00;;;;;;5084024;28;20043;-54
2022/01/15 10:01:29;;;;;;;2.50;2.00;;;16.70;52.30;;;;;;5095471;28;20028;-55
2022/01/15 10:03:59;;;;;;;2.95;1.90;;;16.80;52.30;;;;;;5105062;28;20028;-57
2022/01/15 10:06:25;;;;;;;3.83;2.00;;;16.70;52.10;;;;;;5105166;28;20028;-54
2022/01/15 10:09:05;;;;;;;2.35;2.03;;;16.70;52.00;;;;;;5104656;28;20050;-56
2022/01/15 10:11:41;;;;;;;2.33;1.90;;;16.70;52.10;;;;;;5101289;28;20052;-57
2022/01/15 10:14:29;;;;;;;2.80;2.20;;;16.70;52.00;;;;;;5122766;28;20039;-53
2022/01/15 10:16:56;;;;;;;3.30;1.83;;;16.70;52.10;;;;;;5125225;28;20019;-52
2022/01/15 10:19:31;;;;;;;1.77;1.40;;;16.70;52.30;;;;;;5112949;28;20264;-54
2022/01/15 10:22:16;;;;;;;2.35;2.10;;;16.70;52.40;;;;;;5104367;28;20032;-51
2022/01/15 10:25:05;;;;;;;2.38;2.03;;;16.70;52.10;;;;;;5105071;28;20036;-55
2022/01/15 10:27:35;;;;;;;3.42;2.30;;;16.70;52.10;;;;;;5104738;28;20123;-52
2022/01/15 10:30:21;;;;;;;2.70;1.95;;;16.70;52.00;;;;;;5086258;28;20053;-53
2022/01/15 10:32:57;;;;;;;3.47;2.35;;;16.70;52.10;;;;;;5104447;28;20073;-52
2022/01/15 10:35:24;;;;;;;2.83;1.88;;;16.70;52.10;;;;;;5104392;28;20028;-53
2022/01/15 10:37:52;;;;;;;2.80;1.90;;;16.70;52.40;;;;;;5104457;28;20073;-53
2022/01/15 10:40:20;;;;;;;2.72;1.83;;;16.80;52.40;;;;;;5104093;28;20030;-53
2022/01/15 10:42:51;;;;;;;2.45;1.80;;;16.70;52.20;;;;;;5103832;28;20056;-53
2022/01/15 10:45:17;;;;;;;2.72;2.20;;;16.70;52.10;;;;;;5104338;28;20045;-55
2022/01/15 10:47:48;;;;;;;2.97;2.10;;;16.80;52.70;;;;;;5085957;28;20028;-52
2022/01/15 10:50:30;;;;;;;2.55;1.92;;;16.70;52.10;;;;;;5104232;28;20032;-52
2022/01/15 10:52:58;;;;;;;2.85;2.05;;;16.70;52.10;;;;;;5103743;28;20020;-53
2022/01/15 10:55:26;;;;;;;2.50;1.95;;;16.70;52.30;;;;;;5104387;28;20032;-51
2022/01/15 10:58:06;;;;;;;2.40;1.88;;;16.70;52.90;;;;;;5086421;28;20105;-54
2022/01/15 11:00:42;;;;;;;2.70;1.95;;;16.80;52.20;;;;;;5103489;28;20095;-55
2022/01/15 11:03:12;;;;;;;2.67;2.08;;;16.80;52.20;;;;;;5103686;28;20046;-51
2022/01/15 11:05:43;;;;;;;2.40;1.95;;;16.80;52.20;;;;;;5103962;28;20060;-54
2022/01/15 11:08:12;;;;;;;2.53;1.80;;;16.70;52.20;;;;;;5103767;28;20036;-55
2022/01/15 11:10:42;;;;;;;3.20;2.42;;;16.70;52.10;;;;;;5103931;28;20059;-54
2022/01/15 11:13:11;;;;;;;3.17;2.00;;;16.70;52.10;;;;;;5103959;28;20024;-52
2022/01/15 11:15:39;;;;;;;2.15;1.80;;;16.70;52.90;;;;;;5103825;28;20046;-52
2022/01/15 11:18:05;;;;;;;1.90;1.75;;;16.70;52.50;;;;;;5103808;28;20024;-53
2022/01/15 11:20:32;;;;;;;2.60;1.90;;;16.80;52.30;;;;;;5103569;28;20031;-54
2022/01/15 11:23:02;;;;;;;2.78;1.98;;;16.70;52.20;;;;;;5103530;28;20028;-55
2022/01/15 11:25:29;;;;;;;2.58;1.85;;;16.70;52.30;;;;;;5104522;28;20028;-52
2022/01/15 11:27:57;;;;;;;2.10;1.88;;;16.70;52.10;;;;;;5115738;28;20048;-55
2022/01/15 11:30:23;;;;;;;2.90;2.20;;;16.70;52.20;;;;;;5098160;28;20063;-56
2022/01/15 11:32:49;;;;;;;2.30;1.83;;;16.70;52.30;;;;;;5081762;28;20048;-53
2022/01/15 11:35:15;;;;;;;2.42;1.80;;;16.70;52.40;;;;;;5083387;28;20024;-54
2022/01/15 11:37:56;;;;;;;3.20;2.10;;;16.80;52.50;;;;;;5083174;28;20048;-54
2022/01/15 11:40:35;;;;;;;2.70;2.00;;;16.80;52.30;;;;;;5083335;28;20025;-53
2022/01/15 11:43:25;;;;;;;2.42;2.00;;;16.80;52.20;;;;;;5082898;28;20050;-54
2022/01/15 11:45:55;;;;;;;2.53;1.85;;;16.70;52.10;;;;;;5083129;28;20056;-52
2022/01/15 11:48:21;;;;;;;2.85;2.22;;;16.70;52.20;;;;;;5084056;28;20825;-55
2022/01/15 11:51:13;;;;;;;3.15;1.98;;;16.70;52.30;;;;;;5103032;28;20036;-53
2022/01/15 11:53:48;;;;;;;2.65;2.15;;;16.70;52.40;;;;;;5092182;28;20035;-55
2022/01/15 11:56:16;;;;;;;2.13;1.73;;;16.80;52.40;;;;;;5110636;28;20059;-53
2022/01/15 11:58:42;;;;;;;3.35;1.90;;;16.80;52.20;;;;;;5103477;28;20024;-55
2022/01/15 12:01:26;;;;;;;3.20;1.90;;;16.70;52.10;;;;;;5084413;28;20037;-53
2022/01/15 12:03:52;;;;;;;2.67;2.00;;;16.70;52.20;;;;;;5064572;28;20067;-54
2022/01/15 12:06:18;;;;;;;2.30;1.98;;;16.70;52.20;;;;;;5086017;28;20078;-55
2022/01/15 12:08:45;;;;;;;2.90;2.00;;;16.70;52.20;;;;;;5102867;28;20688;-52
2022/01/15 12:11:11;;;;;;;2.65;2.10;;;16.70;52.40;;;;;;5103137;28;20071;-54
2022/01/15 12:13:44;;;;;;;2.58;2.10;;;16.70;53.00;;;;;;5084579;28;20028;-55
2022/01/15 12:16:26;;;;;;;2.92;2.10;;;16.70;52.30;;;;;;5084787;28;20032;-55
2022/01/15 12:18:53;;;;;;;3.25;2.08;;;16.70;52.20;;;;;;5103050;28;20060;-55
2022/01/15 12:21:45;;;;;;;3.70;2.30;;;16.80;52.80;;;;;;5102956;28;20088;-52
2022/01/15 12:24:34;;;;;;;2.42;2.00;;;16.70;52.20;;;;;;5120556;28;20027;-55
2022/01/15 12:27:01;;;;;;;2.70;2.03;;;16.70;52.20;;;;;;5110543;28;20030;-56
2022/01/15 12:29:27;;;;;;;3.35;2.30;;;16.70;52.30;;;;;;5098157;28;20029;-55
2022/01/15 12:31:53;;;;;;;3.03;2.10;;;16.70;52.50;;;;;;5083013;28;20028;-54
2022/01/15 12:34:27;;;;;;;3.42;2.55;;;16.80;52.50;;;;;;5082567;28;20052;-54
2022/01/15 12:36:53;;;;;;;3.47;1.90;;;16.80;52.30;;;;;;5082530;28;20036;-55
2022/01/15 12:39:33;;;;;;;3.35;2.33;;;16.80;52.30;;;;;;5082513;28;20067;-56
2022/01/15 12:41:59;;;;;;;2.95;2.33;;;16.70;52.30;;;;;;5082690;28;20060;-55
2022/01/15 12:44:25;;;;;;;2.50;2.20;;;16.70;52.30;;;;;;5082283;28;20044;-55
2022/01/15 12:46:56;;;;;;;3.03;2.00;;;16.70;52.30;;;;;;5082390;28;20028;-54
2022/01/15 12:49:33;;;;;;;2.65;2.30;;;16.70;52.40;;;;;;5092049;28;20044;-54
2022/01/15 12:52:14;;;;;;;2.90;2.00;;;16.70;52.50;;;;;;5086397;28;20043;-52
2022/01/15 12:54:41;;;;;;;3.15;2.08;;;16.70;52.30;;;;;;5083788;28;20329;-55
2022/01/15 12:57:07;;;;;;;2.85;2.20;;;16.70;52.20;;;;;;5102310;28;20032;-54
2022/01/15 12:59:33;;;;;;;3.20;2.38;;;16.80;52.20;;;;;;5102425;28;20028;-54
2022/01/15 13:02:02;;;;;;;2.70;2.20;;;16.70;52.20;;;;;;5102549;28;20043;-54
2022/01/15 13:04:28;;;;;;;3.30;2.03;;;16.70;52.20;;;;;;5103159;28;20028;-54
2022/01/15 13:07:01;;;;;;;3.25;2.50;;;16.70;52.20;;;;;;5088173;28;20171;-53
2022/01/15 13:09:40;;;;;;;3.08;2.30;;;16.70;52.40;;;;;;5105685;28;20028;-54
2022/01/15 13:12:07;;;;;;;2.00;1.80;;;16.70;52.40;;;;;;5088164;28;20491;-55
2022/01/15 13:14:38;;;;;;;3.05;2.58;;;16.80;52.20;;;;;;5105857;28;20043;-54